Eagle County Regional Airport
KEGE : now visible

Airfield :











YOU CAN JOIN US ON...

 
LOGIN :

Register | Disclaimer

   EN    FR    IT 

 









Legend :    VFR   Marginal VFR   IFR   Intensive IFR   Very Intensive IFR
Visi :
Ceiling :
>= 8 km
>= 3000ft
5 to 8 km
1000 to 3000 ft
1500m to 5 km
500 to 1000 ft
800 to 1500m
200 to 500 ft
< 800m
< 200 ft
Symbols :   Thunderstorms  Fog  Heavy snow  Heavy precipitations  Wind > 20 kt






- Airport Elevation : 6548 ft
- IATA code : EGE


KEGE - Eagle County Regional

CURRENT METAR :
  • 241056Z AUTO 09005KT 10SM CLR 00/M08 A3004 RMK AO2 SLP163 T00001083 FZRANO PNO $

EXPIRED METARs :
  • 240956Z AUTO 09003KT 10SM CLR 02/M09 A3005 RMK AO2 SLP161 T00171089 FZRANO PNO $
  • 240856Z AUTO 10007KT 10SM CLR 02/M08 A3007 RMK AO2 SLP170 6//// T00171083 55006 FZRANO PNO $

TAF KEGE
Valid from the 24 at 12:00 until the 25 at 12:00 UTC


241128Z 2412/2512 10005KT P6SM SKC
FM241700 24010G20KT P6SM SCT250
FM242000 24023G33KT P6SM SCT120 BKN200
FM250300 23010KT P6SM BKN120
FM250500 16006KT P6SM SCT080 BKN100
KZDV FIR / North America



MET'MAP, your aeronautical weather chart ! - Copyright ORBIFLY December 2007 - Disclaimer

ORBIFLY MET'MAP TEAM :

Programming & Development : Alexandra Zaïnal
Concept & original design : Baudouin d'Aumeries
Assistance for programming : Marc-Olivier Méhu
Technical & hardware support : Manuel Goepfert

Contact : metmap@orbifly.com




SOURCES & CREDITS :

   NOAA       Earth
Advisory